sensor_id;sensor_type;location;lat;lon;timestamp;temperature;humidity
26164;DHT22;13914;48.178;11.716;2022-11-15T00:01:08;4.80;98.10
26164;DHT22;13914;48.178;11.716;2022-11-15T00:03:35;4.70;98.00
26164;DHT22;13914;48.178;11.716;2022-11-15T00:06:01;4.70;98.10
26164;DHT22;13914;48.178;11.716;2022-11-15T00:08:29;4.70;98.10
26164;DHT22;13914;48.178;11.716;2022-11-15T00:10:56;4.70;98.10
26164;DHT22;13914;48.178;11.716;2022-11-15T00:13:22;4.70;98.10
26164;DHT22;13914;48.178;11.716;2022-11-15T00:15:48;4.60;98.10
26164;DHT22;13914;48.178;11.716;2022-11-15T00:18:14;4.60;98.00
26164;DHT22;13914;48.178;11.716;2022-11-15T00:20:40;4.70;98.10
26164;DHT22;13914;48.178;11.716;2022-11-15T00:23:06;4.60;98.10
26164;DHT22;13914;48.178;11.716;2022-11-15T00:25:32;4.60;98.10
26164;DHT22;13914;48.178;11.716;2022-11-15T00:27:58;4.60;98.10
26164;DHT22;13914;48.178;11.716;2022-11-15T00:30:24;4.60;98.10
26164;DHT22;13914;48.178;11.716;2022-11-15T00:32:50;4.60;98.10
26164;DHT22;13914;48.178;11.716;2022-11-15T00:35:16;4.60;98.10
26164;DHT22;13914;48.178;11.716;2022-11-15T00:37:42;4.60;98.10
26164;DHT22;13914;48.178;11.716;2022-11-15T00:40:10;4.50;98.10
26164;DHT22;13914;48.178;11.716;2022-11-15T00:42:38;4.50;98.10
26164;DHT22;13914;48.178;11.716;2022-11-15T00:45:04;4.50;98.20
26164;DHT22;13914;48.178;11.716;2022-11-15T00:47:30;4.50;98.20
26164;DHT22;13914;48.178;11.716;2022-11-15T00:49:55;4.50;98.10
26164;DHT22;13914;48.178;11.716;2022-11-15T00:52:21;4.40;98.10
26164;DHT22;13914;48.178;11.716;2022-11-15T00:54:47;4.40;98.10
26164;DHT22;13914;48.178;11.716;2022-11-15T00:57:12;4.40;98.10
26164;DHT22;13914;48.178;11.716;2022-11-15T00:59:38;4.40;98.10
26164;DHT22;13914;48.178;11.716;2022-11-15T01:02:03;4.40;98.20
26164;DHT22;13914;48.178;11.716;2022-11-15T01:04:29;4.40;98.20
26164;DHT22;13914;48.178;11.716;2022-11-15T01:06:55;4.40;98.10
26164;DHT22;13914;48.178;11.716;2022-11-15T01:09:20;4.40;98.20
26164;DHT22;13914;48.178;11.716;2022-11-15T01:11:46;4.40;98.10
26164;DHT22;13914;48.178;11.716;2022-11-15T01:14:12;4.40;98.20
26164;DHT22;13914;48.178;11.716;2022-11-15T01:16:37;4.40;98.20
26164;DHT22;13914;48.178;11.716;2022-11-15T01:19:03;4.30;98.20
26164;DHT22;13914;48.178;11.716;2022-11-15T01:21:29;4.30;98.20
26164;DHT22;13914;48.178;11.716;2022-11-15T01:23:55;4.30;98.10
26164;DHT22;13914;48.178;11.716;2022-11-15T01:26:22;4.30;98.20
26164;DHT22;13914;48.178;11.716;2022-11-15T01:28:48;4.30;98.20
26164;DHT22;13914;48.178;11.716;2022-11-15T01:31:15;4.30;98.20
26164;DHT22;13914;48.178;11.716;2022-11-15T01:33:43;4.30;98.20
26164;DHT22;13914;48.178;11.716;2022-11-15T01:36:13;4.30;98.20
26164;DHT22;13914;48.178;11.716;2022-11-15T01:38:41;4.20;98.20
26164;DHT22;13914;48.178;11.716;2022-11-15T01:41:11;4.20;98.20
26164;DHT22;13914;48.178;11.716;2022-11-15T01:43:40;4.20;98.20
26164;DHT22;13914;48.178;11.716;2022-11-15T01:46:08;4.20;98.20
26164;DHT22;13914;48.178;11.716;2022-11-15T01:49:12;4.20;98.10
26164;DHT22;13914;48.178;11.716;2022-11-15T01:51:40;4.20;98.20
26164;DHT22;13914;48.178;11.716;2022-11-15T01:54:07;4.20;98.20
26164;DHT22;13914;48.178;11.716;2022-11-15T01:56:41;4.20;98.30
26164;DHT22;13914;48.178;11.716;2022-11-15T01:59:10;4.20;98.20
26164;DHT22;13914;48.178;11.716;2022-11-15T02:01:37;4.20;98.20
26164;DHT22;13914;48.178;11.716;2022-11-15T02:04:10;4.20;98.20
26164;DHT22;13914;48.178;11.716;2022-11-15T02:06:38;4.10;98.20
26164;DHT22;13914;48.178;11.716;2022-11-15T02:09:05;4.20;98.20
26164;DHT22;13914;48.178;11.716;2022-11-15T02:11:31;4.10;98.20
26164;DHT22;13914;48.178;11.716;2022-11-15T02:13:57;4.10;98.10
26164;DHT22;13914;48.178;11.716;2022-11-15T02:18:58;4.10;98.20
26164;DHT22;13914;48.178;11.716;2022-11-15T02:21:47;4.10;98.20
26164;DHT22;13914;48.178;11.716;2022-11-15T02:27:31;4.10;98.20
26164;DHT22;13914;48.178;11.716;2022-11-15T02:32:48;4.10;98.20
26164;DHT22;13914;48.178;11.716;2022-11-15T02:35:22;4.10;98.20
26164;DHT22;13914;48.178;11.716;2022-11-15T02:40:52;4.10;98.20
26164;DHT22;13914;48.178;11.716;2022-11-15T02:43:27;4.10;98.20
26164;DHT22;13914;48.178;11.716;2022-11-15T02:46:18;4.00;98.20
26164;DHT22;13914;48.178;11.716;2022-11-15T02:49:07;4.00;98.20
26164;DHT22;13914;48.178;11.716;2022-11-15T02:51:33;4.00;98.30
26164;DHT22;13914;48.178;11.716;2022-11-15T02:53:59;4.00;98.30
26164;DHT22;13914;48.178;11.716;2022-11-15T02:56:25;4.00;98.30
26164;DHT22;13914;48.178;11.716;2022-11-15T02:58:55;4.00;98.70
26164;DHT22;13914;48.178;11.716;2022-11-15T03:04:01;4.00;98.30
26164;DHT22;13914;48.178;11.716;2022-11-15T03:06:35;4.00;98.20
26164;DHT22;13914;48.178;11.716;2022-11-15T03:09:28;4.00;98.20
26164;DHT22;13914;48.178;11.716;2022-11-15T03:12:07;4.00;98.30
26164;DHT22;13914;48.178;11.716;2022-11-15T03:14:44;4.00;98.60
26164;DHT22;13914;48.178;11.716;2022-11-15T03:19:44;3.90;98.20
26164;DHT22;13914;48.178;11.716;2022-11-15T03:22:12;3.90;98.20
26164;DHT22;13914;48.178;11.716;2022-11-15T03:24:40;3.90;98.20
26164;DHT22;13914;48.178;11.716;2022-11-15T03:27:08;3.90;98.20
26164;DHT22;13914;48.178;11.716;2022-11-15T03:29:37;3.90;98.20
26164;DHT22;13914;48.178;11.716;2022-11-15T03:32:10;3.90;98.20
26164;DHT22;13914;48.178;11.716;2022-11-15T03:34:39;3.80;98.10
26164;DHT22;13914;48.178;11.716;2022-11-15T03:37:08;3.90;98.20
26164;DHT22;13914;48.178;11.716;2022-11-15T03:39:35;3.80;98.10
26164;DHT22;13914;48.178;11.716;2022-11-15T03:45:02;3.80;98.10
26164;DHT22;13914;48.178;11.716;2022-11-15T03:47:58;3.80;98.10
26164;DHT22;13914;48.178;11.716;2022-11-15T03:50:26;3.80;98.10
26164;DHT22;13914;48.178;11.716;2022-11-15T03:52:52;3.70;98.10
26164;DHT22;13914;48.178;11.716;2022-11-15T03:55:20;3.80;98.20
26164;DHT22;13914;48.178;11.716;2022-11-15T03:57:47;3.70;98.10
26164;DHT22;13914;48.178;11.716;2022-11-15T04:00:14;3.70;98.10
26164;DHT22;13914;48.178;11.716;2022-11-15T04:02:40;3.70;98.10
26164;DHT22;13914;48.178;11.716;2022-11-15T04:05:06;3.70;98.20
26164;DHT22;13914;48.178;11.716;2022-11-15T04:07:32;3.70;98.20
26164;DHT22;13914;48.178;11.716;2022-11-15T04:09:58;3.60;98.10
26164;DHT22;13914;48.178;11.716;2022-11-15T04:12:35;3.60;98.10
26164;DHT22;13914;48.178;11.716;2022-11-15T04:17:54;3.60;98.10
26164;DHT22;13914;48.178;11.716;2022-11-15T04:20:20;3.60;98.20
26164;DHT22;13914;48.178;11.716;2022-11-15T04:23:09;3.60;98.10
26164;DHT22;13914;48.178;11.716;2022-11-15T04:26:30;3.60;98.20
26164;DHT22;13914;48.178;11.716;2022-11-15T04:28:56;3.60;98.10
26164;DHT22;13914;48.178;11.716;2022-11-15T04:31:40;3.60;98.10
26164;DHT22;13914;48.178;11.716;2022-11-15T04:34:07;3.50;98.10
26164;DHT22;13914;48.178;11.716;2022-11-15T04:36:33;3.50;98.10
26164;DHT22;13914;48.178;11.716;2022-11-15T04:39:17;3.50;98.10
26164;DHT22;13914;48.178;11.716;2022-11-15T04:41:43;3.50;98.20
26164;DHT22;13914;48.178;11.716;2022-11-15T04:44:09;3.50;98.20
26164;DHT22;13914;48.178;11.716;2022-11-15T04:46:35;3.50;98.20
26164;DHT22;13914;48.178;11.716;2022-11-15T04:49:01;3.50;98.20
26164;DHT22;13914;48.178;11.716;2022-11-15T04:51:26;3.50;98.20
26164;DHT22;13914;48.178;11.716;2022-11-15T04:53:52;3.50;98.20
26164;DHT22;13914;48.178;11.716;2022-11-15T04:56:18;3.40;98.20
26164;DHT22;13914;48.178;11.716;2022-11-15T04:58:44;3.40;98.20
26164;DHT22;13914;48.178;11.716;2022-11-15T05:01:11;3.40;98.20
26164;DHT22;13914;48.178;11.716;2022-11-15T05:03:40;3.50;98.20
26164;DHT22;13914;48.178;11.716;2022-11-15T05:06:25;3.40;98.20
26164;DHT22;13914;48.178;11.716;2022-11-15T05:08:51;3.40;98.20
26164;DHT22;13914;48.178;11.716;2022-11-15T05:11:17;3.50;98.20
26164;DHT22;13914;48.178;11.716;2022-11-15T05:13:42;3.40;98.20
26164;DHT22;13914;48.178;11.716;2022-11-15T05:16:08;3.40;98.10
26164;DHT22;13914;48.178;11.716;2022-11-15T05:18:34;3.40;98.10
26164;DHT22;13914;48.178;11.716;2022-11-15T05:21:07;3.40;98.10
26164;DHT22;13914;48.178;11.716;2022-11-15T05:23:34;3.40;98.10
26164;DHT22;13914;48.178;11.716;2022-11-15T05:26:00;3.40;98.20
26164;DHT22;13914;48.178;11.716;2022-11-15T05:28:26;3.40;98.20
26164;DHT22;13914;48.178;11.716;2022-11-15T05:30:52;3.40;98.10
26164;DHT22;13914;48.178;11.716;2022-11-15T05:33:18;3.40;98.10
26164;DHT22;13914;48.178;11.716;2022-11-15T05:35:46;3.40;98.20
26164;DHT22;13914;48.178;11.716;2022-11-15T05:38:15;3.40;98.10
26164;DHT22;13914;48.178;11.716;2022-11-15T05:40:41;3.40;98.10
26164;DHT22;13914;48.178;11.716;2022-11-15T05:43:07;3.40;98.10
26164;DHT22;13914;48.178;11.716;2022-11-15T05:45:33;3.40;98.20
26164;DHT22;13914;48.178;11.716;2022-11-15T05:47:59;3.30;98.10
26164;DHT22;13914;48.178;11.716;2022-11-15T05:50:26;3.30;98.10
26164;DHT22;13914;48.178;11.716;2022-11-15T05:52:52;3.30;98.10
26164;DHT22;13914;48.178;11.716;2022-11-15T05:55:19;3.30;98.10
26164;DHT22;13914;48.178;11.716;2022-11-15T05:57:45;3.30;98.10
26164;DHT22;13914;48.178;11.716;2022-11-15T06:00:11;3.30;98.10
26164;DHT22;13914;48.178;11.716;2022-11-15T06:02:37;3.30;98.20
26164;DHT22;13914;48.178;11.716;2022-11-15T06:05:03;3.30;98.10
26164;DHT22;13914;48.178;11.716;2022-11-15T06:07:29;3.30;98.10
26164;DHT22;13914;48.178;11.716;2022-11-15T06:09:55;3.30;98.10
26164;DHT22;13914;48.178;11.716;2022-11-15T06:12:20;3.30;98.10
26164;DHT22;13914;48.178;11.716;2022-11-15T06:14:46;3.20;98.10
26164;DHT22;13914;48.178;11.716;2022-11-15T06:17:12;3.30;98.10
26164;DHT22;13914;48.178;11.716;2022-11-15T06:19:37;3.30;98.10
26164;DHT22;13914;48.178;11.716;2022-11-15T06:22:03;3.20;98.10
26164;DHT22;13914;48.178;11.716;2022-11-15T06:24:29;3.30;98.10
26164;DHT22;13914;48.178;11.716;2022-11-15T06:26:54;3.30;98.10
26164;DHT22;13914;48.178;11.716;2022-11-15T06:29:20;3.20;98.10
26164;DHT22;13914;48.178;11.716;2022-11-15T06:31:46;3.20;98.10
26164;DHT22;13914;48.178;11.716;2022-11-15T06:34:11;3.20;98.10
26164;DHT22;13914;48.178;11.716;2022-11-15T06:36:37;3.20;98.10
26164;DHT22;13914;48.178;11.716;2022-11-15T06:39:03;3.20;98.10
26164;DHT22;13914;48.178;11.716;2022-11-15T06:41:29;3.10;98.10
26164;DHT22;13914;48.178;11.716;2022-11-15T06:43:56;3.10;98.50
26164;DHT22;13914;48.178;11.716;2022-11-15T06:46:22;3.10;98.10
26164;DHT22;13914;48.178;11.716;2022-11-15T06:48:50;3.10;98.10
26164;DHT22;13914;48.178;11.716;2022-11-15T06:51:16;3.10;98.10
26164;DHT22;13914;48.178;11.716;2022-11-15T06:53:42;3.10;98.10
26164;DHT22;13914;48.178;11.716;2022-11-15T06:56:07;3.10;98.10
26164;DHT22;13914;48.178;11.716;2022-11-15T06:58:34;3.10;98.10
26164;DHT22;13914;48.178;11.716;2022-11-15T07:01:01;3.10;98.10
26164;DHT22;13914;48.178;11.716;2022-11-15T07:03:29;3.10;98.10
26164;DHT22;13914;48.178;11.716;2022-11-15T07:05:55;3.10;98.00
26164;DHT22;13914;48.178;11.716;2022-11-15T07:08:22;3.10;98.10
26164;DHT22;13914;48.178;11.716;2022-11-15T07:10:48;3.10;98.10
26164;DHT22;13914;48.178;11.716;2022-11-15T07:13:14;3.10;98.10
26164;DHT22;13914;48.178;11.716;2022-11-15T07:15:40;3.10;98.00
26164;DHT22;13914;48.178;11.716;2022-11-15T07:18:06;3.10;98.00
26164;DHT22;13914;48.178;11.716;2022-11-15T07:20:32;3.20;98.00
26164;DHT22;13914;48.178;11.716;2022-11-15T07:23:01;3.10;97.90
26164;DHT22;13914;48.178;11.716;2022-11-15T07:25:30;3.20;98.00
26164;DHT22;13914;48.178;11.716;2022-11-15T07:27:59;3.20;97.90
26164;DHT22;13914;48.178;11.716;2022-11-15T07:30:25;3.20;97.90
26164;DHT22;13914;48.178;11.716;2022-11-15T07:32:52;3.20;97.90
26164;DHT22;13914;48.178;11.716;2022-11-15T07:35:19;3.20;97.90
26164;DHT22;13914;48.178;11.716;2022-11-15T07:37:52;3.20;98.30
26164;DHT22;13914;48.178;11.716;2022-11-15T07:40:20;3.20;97.90
26164;DHT22;13914;48.178;11.716;2022-11-15T07:42:46;3.20;97.90
26164;DHT22;13914;48.178;11.716;2022-11-15T07:45:19;3.30;97.90
26164;DHT22;13914;48.178;11.716;2022-11-15T07:47:46;3.30;97.90
26164;DHT22;13914;48.178;11.716;2022-11-15T07:50:12;3.30;98.00
26164;DHT22;13914;48.178;11.716;2022-11-15T07:52:37;3.30;97.90
26164;DHT22;13914;48.178;11.716;2022-11-15T07:55:03;3.30;97.90
26164;DHT22;13914;48.178;11.716;2022-11-15T07:57:29;3.40;98.00
26164;DHT22;13914;48.178;11.716;2022-11-15T07:59:55;3.40;98.10
26164;DHT22;13914;48.178;11.716;2022-11-15T08:02:21;3.50;98.00
26164;DHT22;13914;48.178;11.716;2022-11-15T08:04:46;3.50;98.00
26164;DHT22;13914;48.178;11.716;2022-11-15T08:07:12;3.60;98.00
26164;DHT22;13914;48.178;11.716;2022-11-15T08:09:38;3.70;98.00
26164;DHT22;13914;48.178;11.716;2022-11-15T08:12:04;3.70;98.10
26164;DHT22;13914;48.178;11.716;2022-11-15T08:14:29;3.80;98.20
26164;DHT22;13914;48.178;11.716;2022-11-15T08:16:55;3.90;98.40
26164;DHT22;13914;48.178;11.716;2022-11-15T08:19:21;3.90;98.50
26164;DHT22;13914;48.178;11.716;2022-11-15T08:21:47;4.10;98.70
26164;DHT22;13914;48.178;11.716;2022-11-15T08:24:12;4.10;98.60
26164;DHT22;13914;48.178;11.716;2022-11-15T08:26:38;4.20;98.80
26164;DHT22;13914;48.178;11.716;2022-11-15T08:29:05;4.30;99.00
26164;DHT22;13914;48.178;11.716;2022-11-15T08:31:31;4.50;99.40
26164;DHT22;13914;48.178;11.716;2022-11-15T08:33:56;4.70;99.40
26164;DHT22;13914;48.178;11.716;2022-11-15T08:36:22;4.80;99.40
26164;DHT22;13914;48.178;11.716;2022-11-15T08:38:48;4.90;99.40
26164;DHT22;13914;48.178;11.716;2022-11-15T08:41:15;5.10;99.60
26164;DHT22;13914;48.178;11.716;2022-11-15T08:43:47;5.20;99.50
26164;DHT22;13914;48.178;11.716;2022-11-15T08:46:13;5.40;99.40
26164;DHT22;13914;48.178;11.716;2022-11-15T08:48:39;5.50;99.30
26164;DHT22;13914;48.178;11.716;2022-11-15T08:51:05;5.70;99.20
26164;DHT22;13914;48.178;11.716;2022-11-15T08:53:31;5.80;99.10
26164;DHT22;13914;48.178;11.716;2022-11-15T08:55:56;6.00;99.00
26164;DHT22;13914;48.178;11.716;2022-11-15T08:58:22;6.20;98.90
26164;DHT22;13914;48.178;11.716;2022-11-15T09:00:48;6.30;98.70
26164;DHT22;13914;48.178;11.716;2022-11-15T09:03:14;6.40;98.70
26164;DHT22;13914;48.178;11.716;2022-11-15T09:05:40;6.50;98.60
26164;DHT22;13914;48.178;11.716;2022-11-15T09:08:06;6.60;98.50
26164;DHT22;13914;48.178;11.716;2022-11-15T09:10:32;6.70;98.70
26164;DHT22;13914;48.178;11.716;2022-11-15T09:12:57;6.90;98.50
26164;DHT22;13914;48.178;11.716;2022-11-15T09:15:23;7.00;98.30
26164;DHT22;13914;48.178;11.716;2022-11-15T09:17:49;7.10;98.30
26164;DHT22;13914;48.178;11.716;2022-11-15T09:20:15;7.20;98.30
26164;DHT22;13914;48.178;11.716;2022-11-15T09:22:40;7.30;98.10
26164;DHT22;13914;48.178;11.716;2022-11-15T09:25:06;7.40;98.00
26164;DHT22;13914;48.178;11.716;2022-11-15T09:27:33;7.50;97.80
26164;DHT22;13914;48.178;11.716;2022-11-15T09:29:58;7.60;98.00
26164;DHT22;13914;48.178;11.716;2022-11-15T09:32:27;7.70;97.80
26164;DHT22;13914;48.178;11.716;2022-11-15T09:34:53;7.80;97.70
26164;DHT22;13914;48.178;11.716;2022-11-15T09:37:19;7.90;97.80
26164;DHT22;13914;48.178;11.716;2022-11-15T09:39:45;8.00;97.80
26164;DHT22;13914;48.178;11.716;2022-11-15T09:53:01;8.50;97.30
26164;DHT22;13914;48.178;11.716;2022-11-15T09:55:32;8.60;97.40
26164;DHT22;13914;48.178;11.716;2022-11-15T09:58:08;8.70;97.40
26164;DHT22;13914;48.178;11.716;2022-11-15T10:00:55;8.80;97.10
26164;DHT22;13914;48.178;11.716;2022-11-15T10:03:27;8.90;97.30
26164;DHT22;13914;48.178;11.716;2022-11-15T10:05:57;9.00;96.90
26164;DHT22;13914;48.178;11.716;2022-11-15T10:11:27;9.20;96.70
26164;DHT22;13914;48.178;11.716;2022-11-15T10:13:56;9.30;96.80
26164;DHT22;13914;48.178;11.716;2022-11-15T10:22:21;9.60;96.40
26164;DHT22;13914;48.178;11.716;2022-11-15T10:24:40;9.70;96.30
26164;DHT22;13914;48.178;11.716;2022-11-15T10:27:14;9.80;96.00
26164;DHT22;13914;48.178;11.716;2022-11-15T10:29:46;9.90;95.90
26164;DHT22;13914;48.178;11.716;2022-11-15T10:32:13;10.00;96.10
26164;DHT22;13914;48.178;11.716;2022-11-15T10:34:40;10.00;96.10
26164;DHT22;13914;48.178;11.716;2022-11-15T10:37:06;10.10;95.90
26164;DHT22;13914;48.178;11.716;2022-11-15T10:39:32;10.20;95.90
26164;DHT22;13914;48.178;11.716;2022-11-15T10:42:14;10.30;96.00
26164;DHT22;13914;48.178;11.716;2022-11-15T10:44:48;10.40;95.70
26164;DHT22;13914;48.178;11.716;2022-11-15T10:47:20;10.50;95.60
26164;DHT22;13914;48.178;11.716;2022-11-15T10:49:54;10.60;95.00
26164;DHT22;13914;48.178;11.716;2022-11-15T10:52:23;10.70;95.70
26164;DHT22;13914;48.178;11.716;2022-11-15T10:55:03;10.70;94.80
26164;DHT22;13914;48.178;11.716;2022-11-15T10:57:48;10.90;94.50
26164;DHT22;13914;48.178;11.716;2022-11-15T11:00:26;11.00;94.50
26164;DHT22;13914;48.178;11.716;2022-11-15T11:05:28;11.10;94.50
26164;DHT22;13914;48.178;11.716;2022-11-15T11:08:04;11.20;94.30
26164;DHT22;13914;48.178;11.716;2022-11-15T11:10:30;11.30;94.30
26164;DHT22;13914;48.178;11.716;2022-11-15T11:15:51;11.50;94.50
26164;DHT22;13914;48.178;11.716;2022-11-15T11:18:35;11.50;94.50
26164;DHT22;13914;48.178;11.716;2022-11-15T11:21:08;11.60;94.40
26164;DHT22;13914;48.178;11.716;2022-11-15T11:27:08;11.80;94.50
26164;DHT22;13914;48.178;11.716;2022-11-15T11:35:13;12.10;94.50
26164;DHT22;13914;48.178;11.716;2022-11-15T11:40:51;12.20;94.10
26164;DHT22;13914;48.178;11.716;2022-11-15T11:48:57;12.50;94.40
26164;DHT22;13914;48.178;11.716;2022-11-15T11:51:38;12.60;94.20
26164;DHT22;13914;48.178;11.716;2022-11-15T11:54:12;12.60;92.90
26164;DHT22;13914;48.178;11.716;2022-11-15T11:56:41;12.70;93.70
26164;DHT22;13914;48.178;11.716;2022-11-15T12:01:44;12.90;93.70
26164;DHT22;13914;48.178;11.716;2022-11-15T12:09:35;13.10;93.90
26164;DHT22;13914;48.178;11.716;2022-11-15T12:12:19;13.20;94.20
26164;DHT22;13914;48.178;11.716;2022-11-15T12:14:55;13.20;94.80
26164;DHT22;13914;48.178;11.716;2022-11-15T12:17:25;13.30;94.70
26164;DHT22;13914;48.178;11.716;2022-11-15T12:19:56;13.30;94.50
26164;DHT22;13914;48.178;11.716;2022-11-15T12:22:23;13.30;94.40
26164;DHT22;13914;48.178;11.716;2022-11-15T12:24:54;13.40;94.60
26164;DHT22;13914;48.178;11.716;2022-11-15T12:27:36;13.40;95.00
26164;DHT22;13914;48.178;11.716;2022-11-15T12:30:08;13.40;94.60
26164;DHT22;13914;48.178;11.716;2022-11-15T12:32:38;13.50;94.70
26164;DHT22;13914;48.178;11.716;2022-11-15T12:35:20;13.50;94.40
26164;DHT22;13914;48.178;11.716;2022-11-15T12:37:49;13.50;94.30
26164;DHT22;13914;48.178;11.716;2022-11-15T12:40:18;13.60;94.90
26164;DHT22;13914;48.178;11.716;2022-11-15T13:06:54;14.10;94.70
26164;DHT22;13914;48.178;11.716;2022-11-15T13:11:59;14.30;95.30
26164;DHT22;13914;48.178;11.716;2022-11-15T13:15:14;14.40;95.30
26164;DHT22;13914;48.178;11.716;2022-11-15T13:19:45;14.50;95.20
26164;DHT22;13914;48.178;11.716;2022-11-15T13:22:12;14.60;95.30
26164;DHT22;13914;48.178;11.716;2022-11-15T13:24:56;14.70;95.50
26164;DHT22;13914;48.178;11.716;2022-11-15T13:27:24;14.70;95.60
26164;DHT22;13914;48.178;11.716;2022-11-15T13:29:50;14.80;95.40
26164;DHT22;13914;48.178;11.716;2022-11-15T13:32:16;14.80;95.30
26164;DHT22;13914;48.178;11.716;2022-11-15T13:34:45;15.00;95.40
26164;DHT22;13914;48.178;11.716;2022-11-15T13:39:50;15.10;95.60
26164;DHT22;13914;48.178;11.716;2022-11-15T13:42:16;15.20;95.50
26164;DHT22;13914;48.178;11.716;2022-11-15T13:44:57;15.20;95.20
26164;DHT22;13914;48.178;11.716;2022-11-15T13:47:27;15.20;94.70
26164;DHT22;13914;48.178;11.716;2022-11-15T13:49:56;15.30;94.80
26164;DHT22;13914;48.178;11.716;2022-11-15T13:52:22;15.20;94.30
26164;DHT22;13914;48.178;11.716;2022-11-15T13:54:57;15.20;94.70
26164;DHT22;13914;48.178;11.716;2022-11-15T13:57:25;15.20;94.50
26164;DHT22;13914;48.178;11.716;2022-11-15T13:59:55;15.20;94.80
26164;DHT22;13914;48.178;11.716;2022-11-15T14:02:30;15.20;94.60
26164;DHT22;13914;48.178;11.716;2022-11-15T14:05:00;15.20;94.60
26164;DHT22;13914;48.178;11.716;2022-11-15T14:07:27;15.10;94.80
26164;DHT22;13914;48.178;11.716;2022-11-15T14:09:54;15.10;94.80
26164;DHT22;13914;48.178;11.716;2022-11-15T14:12:27;15.10;94.90
26164;DHT22;13914;48.178;11.716;2022-11-15T14:15:23;15.10;95.00
26164;DHT22;13914;48.178;11.716;2022-11-15T14:17:48;15.10;94.40
26164;DHT22;13914;48.178;11.716;2022-11-15T14:20:46;15.00;94.50
26164;DHT22;13914;48.178;11.716;2022-11-15T14:23:18;15.00;93.90
26164;DHT22;13914;48.178;11.716;2022-11-15T14:25:55;14.90;94.00
26164;DHT22;13914;48.178;11.716;2022-11-15T14:30:47;14.80;94.60
26164;DHT22;13914;48.178;11.716;2022-11-15T14:33:32;14.80;94.40
26164;DHT22;13914;48.178;11.716;2022-11-15T14:36:03;14.70;94.40
26164;DHT22;13914;48.178;11.716;2022-11-15T14:38:32;14.70;94.20
26164;DHT22;13914;48.178;11.716;2022-11-15T14:40:58;14.60;94.30
26164;DHT22;13914;48.178;11.716;2022-11-15T14:43:24;14.60;94.20
26164;DHT22;13914;48.178;11.716;2022-11-15T14:45:49;14.50;93.70
26164;DHT22;13914;48.178;11.716;2022-11-15T14:48:15;14.40;93.80
26164;DHT22;13914;48.178;11.716;2022-11-15T14:50:41;14.40;94.40
26164;DHT22;13914;48.178;11.716;2022-11-15T14:53:13;14.30;94.00
26164;DHT22;13914;48.178;11.716;2022-11-15T14:55:40;14.30;94.60
26164;DHT22;13914;48.178;11.716;2022-11-15T14:58:07;14.30;95.10
26164;DHT22;13914;48.178;11.716;2022-11-15T15:00:33;14.20;95.10
26164;DHT22;13914;48.178;11.716;2022-11-15T15:03:03;14.20;95.10
26164;DHT22;13914;48.178;11.716;2022-11-15T15:05:30;14.20;95.20
26164;DHT22;13914;48.178;11.716;2022-11-15T15:07:58;14.10;95.10
26164;DHT22;13914;48.178;11.716;2022-11-15T15:10:24;14.10;95.10
26164;DHT22;13914;48.178;11.716;2022-11-15T15:12:51;14.00;95.10
26164;DHT22;13914;48.178;11.716;2022-11-15T15:15:22;14.00;95.00
26164;DHT22;13914;48.178;11.716;2022-11-15T15:17:50;13.90;95.00
26164;DHT22;13914;48.178;11.716;2022-11-15T15:20:16;13.90;95.10
26164;DHT22;13914;48.178;11.716;2022-11-15T15:22:42;13.80;95.00
26164;DHT22;13914;48.178;11.716;2022-11-15T15:25:40;13.70;95.00
26164;DHT22;13914;48.178;11.716;2022-11-15T15:28:00;13.70;95.10
26164;DHT22;13914;48.178;11.716;2022-11-15T15:30:27;13.60;95.00
26164;DHT22;13914;48.178;11.716;2022-11-15T15:32:54;13.50;95.10
26164;DHT22;13914;48.178;11.716;2022-11-15T15:35:22;13.40;95.00
26164;DHT22;13914;48.178;11.716;2022-11-15T15:37:49;13.40;95.10
26164;DHT22;13914;48.178;11.716;2022-11-15T15:40:20;13.30;95.00
26164;DHT22;13914;48.178;11.716;2022-11-15T15:42:50;13.20;95.00
26164;DHT22;13914;48.178;11.716;2022-11-15T15:45:16;13.10;95.20
26164;DHT22;13914;48.178;11.716;2022-11-15T15:47:43;13.10;95.20
26164;DHT22;13914;48.178;11.716;2022-11-15T15:52:50;12.90;95.70
26164;DHT22;13914;48.178;11.716;2022-11-15T15:55:17;12.80;95.40
26164;DHT22;13914;48.178;11.716;2022-11-15T15:57:43;12.80;95.40
26164;DHT22;13914;48.178;11.716;2022-11-15T16:00:09;12.70;95.40
26164;DHT22;13914;48.178;11.716;2022-11-15T16:02:35;12.60;95.60
26164;DHT22;13914;48.178;11.716;2022-11-15T16:05:01;12.50;95.50
26164;DHT22;13914;48.178;11.716;2022-11-15T16:07:26;12.50;95.60
26164;DHT22;13914;48.178;11.716;2022-11-15T16:09:57;12.30;95.50
26164;DHT22;13914;48.178;11.716;2022-11-15T16:12:34;12.30;95.70
26164;DHT22;13914;48.178;11.716;2022-11-15T16:15:00;12.30;95.70
26164;DHT22;13914;48.178;11.716;2022-11-15T16:17:28;12.20;95.70
26164;DHT22;13914;48.178;11.716;2022-11-15T16:19:56;12.10;95.80
26164;DHT22;13914;48.178;11.716;2022-11-15T16:22:21;12.00;95.80
26164;DHT22;13914;48.178;11.716;2022-11-15T16:24:50;11.90;95.80
26164;DHT22;13914;48.178;11.716;2022-11-15T16:27:18;11.90;95.80
26164;DHT22;13914;48.178;11.716;2022-11-15T16:29:44;11.80;95.90
26164;DHT22;13914;48.178;11.716;2022-11-15T16:32:13;11.70;95.90
26164;DHT22;13914;48.178;11.716;2022-11-15T16:34:40;11.70;95.90
26164;DHT22;13914;48.178;11.716;2022-11-15T16:37:08;11.60;95.90
26164;DHT22;13914;48.178;11.716;2022-11-15T16:39:49;11.50;95.90
26164;DHT22;13914;48.178;11.716;2022-11-15T16:42:15;11.50;96.00
26164;DHT22;13914;48.178;11.716;2022-11-15T16:44:41;11.40;96.00
26164;DHT22;13914;48.178;11.716;2022-11-15T16:47:19;11.30;96.00
26164;DHT22;13914;48.178;11.716;2022-11-15T16:49:44;11.30;96.10
26164;DHT22;13914;48.178;11.716;2022-11-15T16:52:11;11.20;96.00
26164;DHT22;13914;48.178;11.716;2022-11-15T16:54:36;11.20;96.10
26164;DHT22;13914;48.178;11.716;2022-11-15T16:57:02;11.00;96.10
26164;DHT22;13914;48.178;11.716;2022-11-15T16:59:28;11.00;96.10
26164;DHT22;13914;48.178;11.716;2022-11-15T17:01:55;11.00;96.10
26164;DHT22;13914;48.178;11.716;2022-11-15T17:04:20;10.90;96.20
26164;DHT22;13914;48.178;11.716;2022-11-15T17:06:47;10.90;96.20
26164;DHT22;13914;48.178;11.716;2022-11-15T17:09:13;10.80;96.20
26164;DHT22;13914;48.178;11.716;2022-11-15T17:11:41;10.80;96.20
26164;DHT22;13914;48.178;11.716;2022-11-15T17:14:07;10.70;96.20
26164;DHT22;13914;48.178;11.716;2022-11-15T17:16:33;10.60;96.30
26164;DHT22;13914;48.178;11.716;2022-11-15T17:19:00;10.60;96.30
26164;DHT22;13914;48.178;11.716;2022-11-15T17:21:26;10.60;96.30
26164;DHT22;13914;48.178;11.716;2022-11-15T17:23:52;10.50;96.40
26164;DHT22;13914;48.178;11.716;2022-11-15T17:26:18;10.50;96.40